createdAt,value
2017-08-08T00:00:13.983Z,1004.19
2017-08-08T00:00:54.374Z,1004.15
2017-08-08T00:01:34.798Z,1004.13
2017-08-08T00:02:15.235Z,1004.14
2017-08-08T00:02:55.590Z,1004.1
2017-08-08T00:03:36.014Z,1004.13
2017-08-08T00:04:16.424Z,1004.08
2017-08-08T00:04:56.824Z,1004.04
2017-08-08T00:05:37.338Z,1004.02
2017-08-08T00:06:17.753Z,1004
2017-08-08T00:06:58.172Z,1003.96
2017-08-08T00:07:38.512Z,1003.98
2017-08-08T00:08:18.943Z,1003.92
2017-08-08T00:08:59.370Z,1003.93
2017-08-08T00:09:39.837Z,1003.86
2017-08-08T00:10:20.220Z,1003.86
2017-08-08T00:11:00.699Z,1003.85
2017-08-08T00:11:41.108Z,1003.82
2017-08-08T00:12:21.495Z,1003.8
2017-08-08T00:13:01.940Z,1003.83
2017-08-08T00:13:42.306Z,1003.75
2017-08-08T00:14:22.750Z,1003.72
2017-08-08T00:15:03.156Z,1003.76
2017-08-08T00:15:43.687Z,1003.71
2017-08-08T00:16:24.075Z,1003.72
2017-08-08T00:17:04.512Z,1003.68
2017-08-08T00:17:44.942Z,1003.66
2017-08-08T00:18:25.339Z,1003.68
2017-08-08T00:19:05.764Z,1003.67
2017-08-08T00:19:46.117Z,1003.63
2017-08-08T00:20:26.510Z,1003.63
2017-08-08T00:21:07.018Z,1003.66
2017-08-08T00:21:47.328Z,1003.67
2017-08-08T00:22:27.848Z,1003.62
2017-08-08T00:23:08.318Z,1003.62
2017-08-08T00:23:48.726Z,1003.61
2017-08-08T00:24:29.160Z,1003.61
2017-08-08T00:25:09.602Z,1003.58
2017-08-08T00:25:50.056Z,1003.58
2017-08-08T00:26:30.599Z,1003.58
2017-08-08T00:27:10.977Z,1003.55
2017-08-08T00:27:51.406Z,1003.55
2017-08-08T00:28:31.685Z,1003.5
2017-08-08T00:29:12.129Z,1003.5
2017-08-08T00:29:52.472Z,1003.49
2017-08-08T00:30:32.997Z,1003.47
2017-08-08T00:31:13.431Z,1003.5
2017-08-08T00:31:53.873Z,1003.48
2017-08-08T00:32:34.266Z,1003.45
2017-08-08T00:33:14.734Z,1003.41
2017-08-08T00:33:55.140Z,1003.43
2017-08-08T00:34:35.606Z,1003.42
2017-08-08T00:35:15.944Z,1003.42
2017-08-08T00:35:56.396Z,1003.38
2017-08-08T00:36:36.817Z,1003.39
2017-08-08T00:37:17.196Z,1003.39
2017-08-08T00:37:57.597Z,1003.38
2017-08-08T00:38:38.087Z,1003.36
2017-08-08T00:39:18.484Z,1003.34
2017-08-08T00:39:58.969Z,1003.34
2017-08-08T00:40:39.379Z,1003.28
2017-08-08T00:41:19.803Z,1003.27
2017-08-08T00:42:00.184Z,1003.28
2017-08-08T00:42:40.670Z,1003.28
2017-08-08T00:43:21.057Z,1003.22
2017-08-08T00:44:01.385Z,1003.22
2017-08-08T00:44:41.881Z,1003.23
2017-08-08T00:45:22.233Z,1003.16
2017-08-08T00:46:02.801Z,1003.2
2017-08-08T00:46:43.266Z,1003.21
2017-08-08T00:47:23.642Z,1003.19
2017-08-08T00:48:04.058Z,1003.16
2017-08-08T00:48:44.421Z,1003.2
2017-08-08T00:49:24.828Z,1003.19
2017-08-08T00:50:05.174Z,1003.23
2017-08-08T00:50:45.617Z,1003.18
2017-08-08T00:51:26.191Z,1003.19
2017-08-08T00:52:06.605Z,1003.23
2017-08-08T00:52:47.028Z,1003.21
2017-08-08T00:53:27.553Z,1003.22
2017-08-08T00:54:07.966Z,1003.2
2017-08-08T00:54:48.319Z,1003.22
2017-08-08T00:55:28.751Z,1003.22
2017-08-08T00:56:09.163Z,1003.21
2017-08-08T00:56:49.560Z,1003.18
2017-08-08T00:57:29.996Z,1003.19
2017-08-08T00:58:10.362Z,1003.2
2017-08-08T00:58:50.750Z,1003.18
2017-08-08T00:59:31.138Z,1003.2
2017-08-08T01:00:11.584Z,1003.16
2017-08-08T01:00:51.891Z,1003.18
2017-08-08T01:01:32.407Z,1003.18
2017-08-08T01:02:12.849Z,1003.15
2017-08-08T01:02:53.262Z,1003.17
2017-08-08T01:03:33.696Z,1003.14
2017-08-08T01:04:14.166Z,1003.09
2017-08-08T01:04:54.532Z,1003.08
2017-08-08T01:05:34.948Z,1003.07
2017-08-08T01:06:15.591Z,1003.11
2017-08-08T01:06:55.890Z,1003.09
2017-08-08T01:07:36.360Z,1003.08
2017-08-08T01:08:16.817Z,1003.04
2017-08-08T01:08:57.138Z,1003.04
2017-08-08T01:09:37.482Z,1003.04
2017-08-08T01:10:17.924Z,1003
2017-08-08T01:10:58.354Z,1003.02
2017-08-08T01:11:38.703Z,1002.99
2017-08-08T01:12:19.161Z,1002.98
2017-08-08T01:12:59.650Z,1002.98
2017-08-08T01:13:39.987Z,1002.94
2017-08-08T01:14:20.420Z,1002.91
2017-08-08T01:15:00.828Z,1002.88
2017-08-08T01:15:41.298Z,1002.91
2017-08-08T01:16:21.651Z,1002.91
2017-08-08T01:17:01.977Z,1002.91
2017-08-08T01:17:42.422Z,1002.94
2017-08-08T01:18:22.931Z,1002.92
2017-08-08T01:19:03.395Z,1002.89
2017-08-08T01:19:43.716Z,1002.93
2017-08-08T01:20:24.117Z,1002.87
2017-08-08T01:21:04.493Z,1002.83
2017-08-08T01:21:44.936Z,1002.82
2017-08-08T01:22:25.304Z,1002.81
2017-08-08T01:23:05.753Z,1002.83
2017-08-08T01:23:46.129Z,1002.8
2017-08-08T01:24:26.519Z,1002.74
2017-08-08T01:25:06.903Z,1002.77
2017-08-08T01:25:47.339Z,1002.72
2017-08-08T01:26:27.724Z,1002.71
2017-08-08T01:27:08.116Z,1002.69
2017-08-08T01:27:48.536Z,1002.65
2017-08-08T01:28:28.911Z,1002.69
2017-08-08T01:29:09.289Z,1002.67
2017-08-08T01:29:49.692Z,1002.66
2017-08-08T01:30:30.026Z,1002.67
2017-08-08T01:31:10.513Z,1002.64
2017-08-08T01:31:50.911Z,1002.62
2017-08-08T01:32:31.307Z,1002.64
2017-08-08T01:33:11.791Z,1002.64
2017-08-08T01:33:52.257Z,1002.63
2017-08-08T01:34:32.690Z,1002.65
2017-08-08T01:35:13.000Z,1002.63
2017-08-08T01:35:53.623Z,1002.59
2017-08-08T01:36:33.966Z,1002.63
2017-08-08T01:37:14.490Z,1002.58
2017-08-08T01:37:54.908Z,1002.59
2017-08-08T01:38:36.204Z,1002.61
2017-08-08T01:39:15.745Z,1002.61
2017-08-08T01:39:56.271Z,1002.59
2017-08-08T01:40:36.595Z,1002.6
2017-08-08T01:41:17.062Z,1002.58
2017-08-08T01:41:57.365Z,1002.52
2017-08-08T01:42:37.900Z,1002.54
2017-08-08T01:43:18.435Z,1002.57
2017-08-08T01:43:58.853Z,1002.53
2017-08-08T01:44:39.284Z,1002.52
2017-08-08T01:45:19.664Z,1002.53
2017-08-08T01:46:00.138Z,1002.51
2017-08-08T01:46:40.577Z,1002.49
2017-08-08T01:47:20.956Z,1002.52
2017-08-08T01:48:01.360Z,1002.53
2017-08-08T01:48:41.740Z,1002.51
2017-08-08T01:49:22.163Z,1002.51
2017-08-08T01:50:02.566Z,1002.52
2017-08-08T01:50:43.063Z,1002.53
2017-08-08T01:51:23.445Z,1002.48
2017-08-08T01:52:03.882Z,1002.48
2017-08-08T01:52:44.279Z,1002.52
2017-08-08T01:53:24.697Z,1002.47
2017-08-08T01:54:05.084Z,1002.47
2017-08-08T01:54:45.930Z,1002.5
2017-08-08T01:55:26.221Z,1002.5
2017-08-08T01:56:06.551Z,1002.5
2017-08-08T01:56:47.049Z,1002.51
2017-08-08T01:57:27.559Z,1002.5
2017-08-08T01:58:07.974Z,1002.49
2017-08-08T01:58:48.408Z,1002.55
2017-08-08T01:59:28.935Z,1002.52
2017-08-08T02:00:09.224Z,1002.5
2017-08-08T02:00:49.642Z,1002.54
2017-08-08T02:01:30.106Z,1002.5
2017-08-08T02:02:10.530Z,1002.5
2017-08-08T02:02:50.925Z,1002.52
2017-08-08T02:03:31.476Z,1002.53
2017-08-08T02:04:11.801Z,1002.47
2017-08-08T02:04:52.314Z,1002.52
2017-08-08T02:05:32.836Z,1002.49
2017-08-08T02:06:13.450Z,1002.45
2017-08-08T02:06:53.866Z,1002.5
2017-08-08T02:07:34.341Z,1002.46
2017-08-08T02:08:14.738Z,1002.43
2017-08-08T02:08:55.698Z,1002.4
2017-08-08T02:09:35.967Z,1002.4
2017-08-08T02:10:16.446Z,1002.38
2017-08-08T02:10:56.859Z,1002.34
2017-08-08T02:11:37.209Z,1002.35
2017-08-08T02:12:17.561Z,1002.33
2017-08-08T02:12:58.141Z,1002.3
2017-08-08T02:13:38.538Z,1002.33
2017-08-08T02:14:19.129Z,1002.32
2017-08-08T02:14:59.533Z,1002.33
2017-08-08T02:15:40.048Z,1002.36
2017-08-08T02:16:20.589Z,1002.36
2017-08-08T02:17:01.292Z,1002.33
2017-08-08T02:17:41.632Z,1002.33
2017-08-08T02:18:21.972Z,1002.34
2017-08-08T02:19:02.383Z,1002.34
2017-08-08T02:19:42.834Z,1002.33
2017-08-08T02:20:23.274Z,1002.34
2017-08-08T02:21:03.996Z,1002.31
2017-08-08T02:21:44.369Z,1002.32
2017-08-08T02:22:24.654Z,1002.3
2017-08-08T02:23:05.212Z,1002.21
2017-08-08T02:23:45.610Z,1002.27
2017-08-08T02:24:26.055Z,1002.23
2017-08-08T02:25:06.612Z,1002.23
2017-08-08T02:25:46.936Z,1002.19
2017-08-08T02:26:27.446Z,1002.19
2017-08-08T02:27:08.001Z,1002.16
2017-08-08T02:27:48.358Z,1002.13
2017-08-08T02:28:28.873Z,1002.12
2017-08-08T02:29:09.252Z,1002.07
2017-08-08T02:29:49.671Z,1002.03
2017-08-08T02:30:29.953Z,1001.98
2017-08-08T02:31:10.391Z,1002.01
2017-08-08T02:31:50.835Z,1001.93
2017-08-08T02:32:31.173Z,1001.97
2017-08-08T02:33:11.652Z,1001.92
2017-08-08T02:33:52.239Z,1001.9
2017-08-08T02:34:33.541Z,1001.93
2017-08-08T02:35:13.905Z,1001.92
2017-08-08T02:35:54.317Z,1001.91
2017-08-08T02:36:34.829Z,1001.93
2017-08-08T02:37:15.252Z,1001.97
2017-08-08T02:37:55.711Z,1001.93
2017-08-08T02:38:36.198Z,1001.91
2017-08-08T02:39:16.642Z,1001.93
2017-08-08T02:39:56.995Z,1001.92
2017-08-08T02:40:37.338Z,1001.94
2017-08-08T02:41:17.852Z,1001.93
2017-08-08T02:41:58.276Z,1001.91
2017-08-08T02:42:38.646Z,1001.9
2017-08-08T02:43:19.285Z,1001.87
2017-08-08T02:43:59.718Z,1001.87
2017-08-08T02:44:40.097Z,1001.79
2017-08-08T02:45:20.480Z,1001.83
2017-08-08T02:46:00.826Z,1001.87
2017-08-08T02:46:41.265Z,1001.88
2017-08-08T02:47:21.621Z,1001.82
2017-08-08T02:48:01.972Z,1001.83
2017-08-08T02:48:42.357Z,1001.75
2017-08-08T02:49:22.775Z,1001.72
2017-08-08T02:50:03.203Z,1001.65
2017-08-08T02:50:43.633Z,1001.61
2017-08-08T02:51:24.077Z,1001.55
2017-08-08T02:52:04.441Z,1001.53
2017-08-08T02:52:44.833Z,1001.46
2017-08-08T02:53:25.254Z,1001.45
2017-08-08T02:54:05.677Z,1001.48
2017-08-08T02:54:46.087Z,1001.44
2017-08-08T02:55:26.544Z,1001.45
2017-08-08T02:56:07.002Z,1001.47
2017-08-08T02:56:47.437Z,1001.44
2017-08-08T02:57:27.822Z,1001.45
2017-08-08T02:58:08.188Z,1001.41
2017-08-08T02:58:48.628Z,1001.41
2017-08-08T02:59:29.041Z,1001.4
2017-08-08T03:00:09.477Z,1001.38
2017-08-08T03:00:49.902Z,1001.39
2017-08-08T03:01:30.329Z,1001.38
2017-08-08T03:02:10.829Z,1001.38
2017-08-08T03:02:51.167Z,1001.39
2017-08-08T03:03:31.519Z,1001.41
2017-08-08T03:04:12.011Z,1001.38
2017-08-08T03:04:52.292Z,1001.36
2017-08-08T03:05:32.803Z,1001.33
2017-08-08T03:06:13.406Z,1001.3
2017-08-08T03:06:53.787Z,1001.27
2017-08-08T03:07:34.173Z,1001.29
2017-08-08T03:08:14.619Z,1001.25
2017-08-08T03:08:54.999Z,1001.21
2017-08-08T03:09:35.541Z,1001.23
2017-08-08T03:10:15.870Z,1001.19
2017-08-08T03:10:56.292Z,1001.25
2017-08-08T03:11:36.855Z,1001.26
2017-08-08T03:12:17.240Z,1001.25
2017-08-08T03:12:57.784Z,1001.23
2017-08-08T03:13:38.033Z,1001.29
2017-08-08T03:14:18.460Z,1001.27
2017-08-08T03:14:58.786Z,1001.28
2017-08-08T03:15:39.197Z,1001.25
2017-08-08T03:16:19.675Z,1001.28
2017-08-08T03:17:00.049Z,1001.28
2017-08-08T03:17:40.678Z,1001.3
2017-08-08T03:18:21.051Z,1001.3
2017-08-08T03:19:02.001Z,1001.31
2017-08-08T03:19:42.390Z,1001.32
2017-08-08T03:20:22.797Z,1001.31
2017-08-08T03:21:03.365Z,1001.36
2017-08-08T03:21:43.793Z,1001.37
2017-08-08T03:22:24.104Z,1001.35
2017-08-08T03:23:04.704Z,1001.34
2017-08-08T03:23:45.104Z,1001.31
2017-08-08T03:24:25.678Z,1001.3
2017-08-08T03:25:06.051Z,1001.33
2017-08-08T03:25:46.448Z,1001.36
2017-08-08T03:26:26.793Z,1001.34
2017-08-08T03:27:07.252Z,1001.36
2017-08-08T03:27:47.806Z,1001.39
2017-08-08T03:28:28.172Z,1001.4
2017-08-08T03:29:08.552Z,1001.48
2017-08-08T03:29:49.094Z,1001.46
2017-08-08T03:30:29.487Z,1001.45
2017-08-08T03:31:09.946Z,1001.46
2017-08-08T03:31:50.451Z,1001.47
2017-08-08T03:32:30.798Z,1001.47
2017-08-08T03:33:11.210Z,1001.46
2017-08-08T03:33:51.590Z,1001.47
2017-08-08T03:34:32.204Z,1001.5
2017-08-08T03:35:12.450Z,1001.45
2017-08-08T03:35:52.904Z,1001.46
2017-08-08T03:36:33.326Z,1001.43
2017-08-08T03:37:13.682Z,1001.47
2017-08-08T03:37:54.308Z,1001.46
2017-08-08T03:38:34.622Z,1001.42
2017-08-08T03:39:15.160Z,1001.43
2017-08-08T03:39:55.599Z,1001.41
2017-08-08T03:40:35.955Z,1001.37
2017-08-08T03:41:16.447Z,1001.36
2017-08-08T03:41:56.711Z,1001.35
2017-08-08T03:42:37.163Z,1001.36
2017-08-08T03:43:17.611Z,1001.36
2017-08-08T03:43:57.989Z,1001.36
2017-08-08T03:44:38.411Z,1001.34
2017-08-08T03:45:18.779Z,1001.33
2017-08-08T03:45:59.360Z,1001.36
2017-08-08T03:46:39.779Z,1001.35
2017-08-08T03:47:20.275Z,1001.36
2017-08-08T03:48:00.781Z,1001.34
2017-08-08T03:48:41.374Z,1001.37
2017-08-08T03:49:21.827Z,1001.35
2017-08-08T03:50:02.303Z,1001.34
2017-08-08T03:50:42.934Z,1001.29
2017-08-08T03:51:23.491Z,1001.27
2017-08-08T03:52:03.801Z,1001.3
2017-08-08T03:52:44.461Z,1001.26
2017-08-08T03:53:24.755Z,1001.26
2017-08-08T03:54:05.439Z,1001.24
2017-08-08T03:54:46.004Z,1001.25
2017-08-08T03:55:26.173Z,1001.24
2017-08-08T03:56:07.062Z,1001.21
2017-08-08T03:56:47.689Z,1001.19
2017-08-08T03:57:28.258Z,1001.19
2017-08-08T03:58:09.044Z,1001.17
2017-08-08T03:58:49.453Z,1001.17
2017-08-08T03:59:30.102Z,1001.16
2017-08-08T04:00:10.506Z,1001.17
2017-08-08T04:00:50.823Z,1001.17
2017-08-08T04:01:31.249Z,1001.14
2017-08-08T04:02:11.684Z,1001.13
2017-08-08T04:02:52.043Z,1001.13
2017-08-08T04:03:32.395Z,1001.11
2017-08-08T04:04:12.949Z,1001.09
2017-08-08T04:04:53.985Z,1001.09
2017-08-08T04:05:34.430Z,1001.07
2017-08-08T04:06:14.687Z,1001.04
2017-08-08T04:06:55.232Z,1000.99
2017-08-08T04:07:35.768Z,1000.97
2017-08-08T04:08:16.132Z,1000.97
2017-08-08T04:08:56.503Z,1000.98
2017-08-08T04:09:36.955Z,1000.93
2017-08-08T04:10:17.412Z,1000.94
2017-08-08T04:10:57.780Z,1000.93
2017-08-08T04:11:38.210Z,1000.93
2017-08-08T04:12:18.602Z,1000.94
2017-08-08T04:12:59.057Z,1000.92
2017-08-08T04:13:39.491Z,1000.96
2017-08-08T04:14:19.815Z,1000.92
2017-08-08T04:15:00.292Z,1000.92
2017-08-08T04:15:40.627Z,1000.89
2017-08-08T04:16:21.081Z,1000.89
2017-08-08T04:17:01.423Z,1000.87
2017-08-08T04:17:41.827Z,1000.88
2017-08-08T04:18:22.252Z,1000.9
2017-08-08T04:19:02.626Z,1000.9
2017-08-08T04:19:43.029Z,1000.85
2017-08-08T04:20:23.642Z,1000.85
2017-08-08T04:21:04.091Z,1000.9
2017-08-08T04:21:44.471Z,1000.89
2017-08-08T04:22:24.832Z,1000.88
2017-08-08T04:23:05.301Z,1000.87
2017-08-08T04:23:45.699Z,1000.86
2017-08-08T04:24:26.211Z,1000.83
2017-08-08T04:25:06.556Z,1000.81
2017-08-08T04:25:47.108Z,1000.84
2017-08-08T04:26:27.445Z,1000.77
2017-08-08T04:27:07.849Z,1000.82
2017-08-08T04:27:48.268Z,1000.78
2017-08-08T04:28:28.791Z,1000.76
2017-08-08T04:29:09.186Z,1000.74
2017-08-08T04:29:49.645Z,1000.72
2017-08-08T04:30:30.123Z,1000.69
2017-08-08T04:31:10.545Z,1000.67
2017-08-08T04:31:50.995Z,1000.64
2017-08-08T04:32:31.386Z,1000.62
2017-08-08T04:33:11.819Z,1000.62
2017-08-08T04:33:52.277Z,1000.59
2017-08-08T04:34:32.797Z,1000.59
2017-08-08T04:35:13.143Z,1000.59
2017-08-08T04:35:53.671Z,1000.57
2017-08-08T04:36:34.148Z,1000.58
2017-08-08T04:37:14.706Z,1000.55
2017-08-08T04:37:55.055Z,1000.56
2017-08-08T04:38:35.596Z,1000.54
2017-08-08T04:39:16.063Z,1000.53
2017-08-08T04:39:56.525Z,1000.49
2017-08-08T04:40:36.914Z,1000.52
2017-08-08T04:41:17.419Z,1000.51
2017-08-08T04:41:57.879Z,1000.48
2017-08-08T04:42:38.378Z,1000.49
2017-08-08T04:43:18.707Z,1000.47
2017-08-08T04:43:59.178Z,1000.43
2017-08-08T04:44:39.539Z,1000.45
2017-08-08T04:45:20.064Z,1000.42
2017-08-08T04:46:00.622Z,1000.46
2017-08-08T04:46:41.000Z,1000.45
2017-08-08T04:47:21.366Z,1000.4
2017-08-08T04:48:01.848Z,1000.42
2017-08-08T04:48:43.756Z,1000.43
2017-08-08T04:49:23.422Z,1000.46
2017-08-08T04:50:04.114Z,1000.44
2017-08-08T04:50:44.588Z,1000.45
2017-08-08T04:51:25.148Z,1000.44
2017-08-08T04:52:05.533Z,1000.48
2017-08-08T04:52:45.952Z,1000.48
2017-08-08T04:53:26.393Z,1000.5
2017-08-08T04:54:06.952Z,1000.55
2017-08-08T04:54:47.294Z,1000.5
2017-08-08T04:55:27.813Z,1000.5
2017-08-08T04:56:08.114Z,1000.51
2017-08-08T04:56:48.547Z,1000.55
2017-08-08T04:57:29.223Z,1000.55
2017-08-08T04:58:09.624Z,1000.54
2017-08-08T04:58:50.064Z,1000.55
2017-08-08T04:59:30.561Z,1000.58
2017-08-08T05:00:11.086Z,1000.56
2017-08-08T05:00:51.397Z,1000.58
2017-08-08T05:01:31.886Z,1000.58
2017-08-08T05:02:12.301Z,1000.59
2017-08-08T05:02:52.758Z,1000.6
2017-08-08T05:03:33.133Z,1000.64
2017-08-08T05:04:13.566Z,1000.58
2017-08-08T05:04:54.064Z,1000.55
2017-08-08T05:05:34.567Z,1000.57
2017-08-08T05:06:15.016Z,1000.53
2017-08-08T05:06:55.690Z,1000.54
2017-08-08T05:07:36.075Z,1000.54
2017-08-08T05:08:16.482Z,1000.54
2017-08-08T05:08:56.981Z,1000.5
2017-08-08T05:09:37.466Z,1000.46
2017-08-08T05:10:17.790Z,1000.48
2017-08-08T05:10:58.283Z,1000.4
2017-08-08T05:11:38.808Z,1000.42
2017-08-08T05:12:19.376Z,1000.42
2017-08-08T05:12:59.668Z,1000.41
2017-08-08T05:13:40.223Z,1000.36
2017-08-08T05:14:20.577Z,1000.42
2017-08-08T05:15:01.263Z,1000.42
2017-08-08T05:15:41.824Z,1000.43
2017-08-08T05:16:22.019Z,1000.43
2017-08-08T05:17:02.469Z,1000.44
2017-08-08T05:17:42.745Z,1000.39
2017-08-08T05:18:23.260Z,1000.39
2017-08-08T05:19:03.723Z,1000.4
2017-08-08T05:19:47.482Z,1000.33
2017-08-08T05:20:28.266Z,1000.33
2017-08-08T05:21:08.860Z,1000.27
2017-08-08T05:21:49.627Z,1000.26
2017-08-08T05:22:30.453Z,1000.27
2017-08-08T05:23:11.135Z,1000.29
2017-08-08T05:23:51.948Z,1000.27
2017-08-08T05:24:32.457Z,1000.31
2017-08-08T05:25:12.987Z,1000.3
2017-08-08T05:25:58.203Z,1000.29
2017-08-08T05:26:38.838Z,1000.33
2017-08-08T05:27:19.217Z,1000.31
2017-08-08T05:27:59.615Z,1000.3
2017-08-08T05:28:40.020Z,1000.31
2017-08-08T05:29:20.522Z,1000.3
2017-08-08T05:30:00.882Z,1000.29
2017-08-08T05:30:41.400Z,1000.31
2017-08-08T05:31:22.057Z,1000.28
2017-08-08T05:32:02.558Z,1000.3
2017-08-08T05:32:42.848Z,1000.31
2017-08-08T05:33:23.361Z,1000.29
2017-08-08T05:34:03.751Z,1000.31
2017-08-08T05:34:44.300Z,1000.34
2017-08-08T05:35:24.643Z,1000.32
2017-08-08T05:36:05.111Z,1000.31
2017-08-08T05:36:45.653Z,1000.32
2017-08-08T05:37:26.053Z,1000.28
2017-08-08T05:38:06.494Z,1000.29
2017-08-08T05:38:46.997Z,1000.3
2017-08-08T05:39:27.443Z,1000.27
2017-08-08T05:40:07.873Z,1000.33
2017-08-08T05:40:48.368Z,1000.31
2017-08-08T05:41:28.866Z,1000.32
2017-08-08T05:42:09.221Z,1000.31
2017-08-08T05:42:49.616Z,1000.31
2017-08-08T05:43:30.104Z,1000.31
2017-08-08T05:44:10.758Z,1000.35
2017-08-08T05:44:51.090Z,1000.37
2017-08-08T05:45:32.220Z,1000.37
2017-08-08T05:46:12.716Z,1000.36
2017-08-08T05:46:53.809Z,1000.39
2017-08-08T05:47:34.788Z,1000.34
2017-08-08T05:48:15.153Z,1000.37
2017-08-08T05:48:56.849Z,1000.39
2017-08-08T05:49:37.779Z,1000.38
2017-08-08T05:50:18.167Z,1000.38
2017-08-08T05:50:58.519Z,1000.4
2017-08-08T05:51:39.059Z,1000.43
2017-08-08T05:52:19.745Z,1000.42
2017-08-08T05:53:00.091Z,1000.41
2017-08-08T05:53:41.051Z,1000.4
2017-08-08T05:54:22.084Z,1000.44
2017-08-08T05:55:02.944Z,1000.44
2017-08-08T05:55:43.424Z,1000.48
2017-08-08T05:56:24.207Z,1000.53
2017-08-08T05:57:04.584Z,1000.58
2017-08-08T05:57:45.653Z,1000.64
2017-08-08T05:58:26.288Z,1000.63
2017-08-08T05:59:06.634Z,1000.64
2017-08-08T05:59:47.133Z,1000.67
2017-08-08T06:00:27.661Z,1000.65
2017-08-08T06:01:08.932Z,1000.66
2017-08-08T06:01:49.948Z,1000.68
2017-08-08T06:02:30.123Z,1000.66
2017-08-08T06:03:10.930Z,1000.66
2017-08-08T06:03:51.346Z,1000.68
2017-08-08T06:04:32.312Z,1000.66
2017-08-08T06:05:12.849Z,1000.66
2017-08-08T06:05:53.595Z,1000.65
2017-08-08T06:06:34.576Z,1000.66
2017-08-08T06:07:15.004Z,1000.65
2017-08-08T06:07:55.536Z,1000.66
2017-08-08T06:08:36.018Z,1000.63
2017-08-08T06:09:16.428Z,1000.66
2017-08-08T06:09:56.808Z,1000.67
2017-08-08T06:10:37.426Z,1000.71
2017-08-08T06:11:17.947Z,1000.68
2017-08-08T06:11:58.664Z,1000.7
2017-08-08T06:12:39.172Z,1000.71
2017-08-08T06:13:20.266Z,1000.76
2017-08-08T06:14:01.102Z,1000.78
2017-08-08T06:14:41.761Z,1000.83
2017-08-08T06:15:22.474Z,1000.88
2017-08-08T06:16:04.966Z,1000.94
2017-08-08T06:16:45.661Z,1000.97
2017-08-08T06:17:26.445Z,1000.98
2017-08-08T06:18:12.146Z,1000.98
2017-08-08T06:18:53.379Z,1001.03
2017-08-08T06:19:34.017Z,1000.99
2017-08-08T06:20:14.677Z,1000.98
2017-08-08T06:20:55.783Z,1001.01
2017-08-08T06:21:37.413Z,1001.03
2017-08-08T06:22:18.477Z,1001.04
2017-08-08T06:22:59.271Z,1001.05
2017-08-08T06:23:40.283Z,1001.08
2017-08-08T06:24:20.875Z,1001.09
2017-08-08T06:25:01.828Z,1001.12
2017-08-08T06:25:43.602Z,1001.13
2017-08-08T06:26:40.158Z,1001.14
2017-08-08T06:27:20.830Z,1001.12
2017-08-08T06:28:01.217Z,1001.09
2017-08-08T06:28:42.516Z,1001.09
2017-08-08T06:29:23.567Z,1001.07
2017-08-08T06:30:05.450Z,1001.04
2017-08-08T06:30:46.307Z,1001.02
2017-08-08T06:31:26.858Z,1001.02
2017-08-08T06:32:07.889Z,1000.98
2017-08-08T06:34:34.812Z,1000.83
2017-08-08T06:35:15.266Z,1000.78
2017-08-08T06:35:55.761Z,1000.76
2017-08-08T06:36:36.270Z,1000.75
2017-08-08T06:37:16.989Z,1000.76
2017-08-08T06:37:57.438Z,1000.74
2017-08-08T06:38:37.880Z,1000.73
2017-08-08T06:39:18.688Z,1000.7
2017-08-08T06:39:59.142Z,1000.67
2017-08-08T06:40:39.513Z,1000.7
2017-08-08T06:41:19.992Z,1000.69
2017-08-08T06:42:00.378Z,1000.67
2017-08-08T06:42:40.870Z,1000.65
2017-08-08T06:43:21.244Z,1000.61
2017-08-08T06:44:01.761Z,1000.58
2017-08-08T06:44:42.102Z,1000.57
2017-08-08T06:45:22.596Z,1000.53
2017-08-08T06:46:03.035Z,1000.54
2017-08-08T06:46:43.545Z,1000.52
2017-08-08T06:47:23.914Z,1000.5
2017-08-08T06:48:04.488Z,1000.48
2017-08-08T06:48:45.028Z,1000.53
2017-08-08T06:49:25.446Z,1000.51
2017-08-08T06:50:05.824Z,1000.53
2017-08-08T06:50:46.315Z,1000.55
2017-08-08T06:51:26.652Z,1000.52
2017-08-08T06:52:07.146Z,1000.52
2017-08-08T06:52:47.806Z,1000.5
2017-08-08T06:53:28.729Z,1000.53
2017-08-08T06:57:04.682Z,1000.54
2017-08-08T06:58:03.647Z,1000.56
2017-08-08T06:59:09.234Z,1000.49
2017-08-08T07:01:28.283Z,1000.41
2017-08-08T07:02:09.448Z,1000.39
2017-08-08T07:02:50.006Z,1000.39
2017-08-08T07:03:30.248Z,1000.35
2017-08-08T07:04:10.608Z,1000.33
2017-08-08T07:04:51.094Z,1000.3
2017-08-08T07:05:31.555Z,1000.3
2017-08-08T07:06:11.935Z,1000.3
2017-08-08T07:06:52.411Z,1000.32
2017-08-08T07:07:32.761Z,1000.31
2017-08-08T07:08:13.931Z,1000.33
2017-08-08T07:08:55.560Z,1000.31
2017-08-08T07:09:35.474Z,1000.35
2017-08-08T07:10:15.962Z,1000.32
2017-08-08T07:10:56.437Z,1000.32
2017-08-08T07:11:36.763Z,1000.32
2017-08-08T07:12:17.197Z,1000.33
2017-08-08T07:12:58.547Z,1000.32
2017-08-08T07:13:39.743Z,1000.32
2017-08-08T07:14:19.889Z,1000.3
2017-08-08T07:15:01.351Z,1000.3
2017-08-08T07:15:40.997Z,1000.28
2017-08-08T07:19:38.660Z,1000.26
2017-08-08T07:20:19.657Z,1000.2
2017-08-08T07:21:00.191Z,1000.24
2017-08-08T07:21:40.615Z,1000.2
2017-08-08T07:22:21.160Z,1000.21
2017-08-08T07:23:01.623Z,1000.17
2017-08-08T07:23:42.261Z,1000.13
2017-08-08T07:24:23.698Z,1000.14
2017-08-08T07:28:38.823Z,1000.06
2017-08-08T07:29:19.068Z,1000.01
2017-08-08T07:30:00.060Z,999.99
2017-08-08T07:30:40.646Z,999.99
2017-08-08T07:31:21.252Z,999.98
2017-08-08T07:32:01.878Z,999.96
2017-08-08T07:35:36.410Z,999.86
2017-08-08T07:36:16.824Z,999.82
2017-08-08T07:36:57.206Z,999.82
2017-08-08T07:37:38.084Z,999.81
2017-08-08T07:38:18.763Z,999.79
2017-08-08T07:38:59.361Z,999.79
2017-08-08T07:39:39.529Z,999.74
2017-08-08T07:40:19.954Z,999.76
2017-08-08T07:41:00.318Z,999.74
2017-08-08T07:41:41.231Z,999.74
2017-08-08T07:42:21.485Z,999.71
2017-08-08T07:43:01.976Z,999.7
2017-08-08T07:43:42.869Z,999.7
2017-08-08T07:44:23.062Z,999.75
2017-08-08T07:45:03.887Z,999.72
2017-08-08T07:45:44.575Z,999.75
2017-08-08T07:46:24.929Z,999.75
2017-08-08T07:47:05.605Z,999.71
2017-08-08T07:47:50.375Z,999.74
2017-08-08T07:48:31.285Z,999.74
2017-08-08T07:49:11.935Z,999.76
2017-08-08T07:49:52.418Z,999.75
2017-08-08T07:50:34.260Z,999.74
2017-08-08T07:51:14.871Z,999.76
2017-08-08T07:53:55.054Z,999.72
2017-08-08T07:54:54.521Z,999.73
2017-08-08T07:55:52.749Z,999.7
2017-08-08T07:56:53.849Z,999.71
2017-08-08T07:57:50.128Z,999.6
2017-08-08T07:58:51.600Z,999.59
2017-08-08T07:59:39.832Z,999.57
2017-08-08T08:00:21.890Z,999.62
2017-08-08T08:01:02.341Z,999.58
2017-08-08T08:01:42.962Z,999.56
2017-08-08T08:02:23.560Z,999.56
2017-08-08T08:03:04.159Z,999.56
2017-08-08T08:03:46.888Z,999.61
2017-08-08T08:04:41.238Z,999.58
2017-08-08T08:05:23.714Z,999.53
2017-08-08T08:06:10.796Z,999.56
2017-08-08T08:06:51.438Z,999.53
2017-08-08T08:07:31.846Z,999.53
2017-08-08T08:08:17.577Z,999.48
2017-08-08T08:08:58.402Z,999.48
2017-08-08T08:09:38.680Z,999.51
2017-08-08T08:10:20.672Z,999.44
2017-08-08T08:11:01.340Z,999.39
2017-08-08T08:11:42.684Z,999.42
2017-08-08T08:12:23.811Z,999.41
2017-08-08T08:16:40.959Z,999.49
2017-08-08T08:17:29.589Z,999.52
2017-08-08T08:20:46.411Z,999.51
2017-08-08T08:21:26.824Z,999.52
2017-08-08T08:22:07.154Z,999.54
2017-08-08T08:27:49.358Z,999.58
2017-08-08T08:28:29.769Z,999.55
2017-08-08T08:29:10.172Z,999.57
2017-08-08T08:29:50.853Z,999.6
2017-08-08T08:30:31.366Z,999.57
2017-08-08T08:31:11.759Z,999.57
2017-08-08T08:31:52.299Z,999.57
2017-08-08T08:32:32.725Z,999.58
2017-08-08T08:33:13.159Z,999.55
2017-08-08T08:33:53.561Z,999.56
2017-08-08T08:34:33.965Z,999.55
2017-08-08T08:35:14.339Z,999.54
2017-08-08T08:35:54.730Z,999.5
2017-08-08T08:38:09.547Z,999.59
2017-08-08T08:40:22.561Z,999.53
2017-08-08T08:41:02.904Z,999.48
2017-08-08T08:41:43.328Z,999.47
2017-08-08T08:45:52.765Z,999.54
2017-08-08T08:46:34.909Z,999.5
2017-08-08T08:47:25.849Z,999.5
2017-08-08T08:49:21.304Z,999.53
2017-08-08T08:50:01.757Z,999.54
2017-08-08T08:50:42.151Z,999.58
2017-08-08T08:51:22.559Z,999.61
2017-08-08T08:52:02.905Z,999.6
2017-08-08T08:52:43.293Z,999.66
2017-08-08T08:53:23.734Z,999.64
2017-08-08T08:54:04.181Z,999.66